sensor_id;sensor_type;location;lat;lon;timestamp;pressure;altitude;pressure_sealevel;temperature;humidity
15932;BME280;8065;49.520;11.284;2023-04-26T00:00:16;97422.06;;;10.05;70.92
15932;BME280;8065;49.520;11.284;2023-04-26T00:02:43;97425.66;;;10.01;71.06
15932;BME280;8065;49.520;11.284;2023-04-26T00:05:09;97429.56;;;10.03;70.96
15932;BME280;8065;49.520;11.284;2023-04-26T00:07:37;97432.84;;;10.00;71.38
15932;BME280;8065;49.520;11.284;2023-04-26T00:10:04;97429.56;;;9.95;70.46
15932;BME280;8065;49.520;11.284;2023-04-26T00:12:30;97431.59;;;9.89;69.21
15932;BME280;8065;49.520;11.284;2023-04-26T00:14:57;97427.38;;;9.88;68.59
15932;BME280;8065;49.520;11.284;2023-04-26T00:17:23;97426.91;;;9.86;69.52
15932;BME280;8065;49.520;11.284;2023-04-26T00:19:50;97433.94;;;9.82;69.83
15932;BME280;8065;49.520;11.284;2023-04-26T00:22:16;97431.13;;;9.78;69.00
15932;BME280;8065;49.520;11.284;2023-04-26T00:24:44;97432.69;;;9.71;70.21
15932;BME280;8065;49.520;11.284;2023-04-26T00:27:10;97432.38;;;9.72;69.43
15932;BME280;8065;49.520;11.284;2023-04-26T00:29:37;97438.47;;;9.73;68.36
15932;BME280;8065;49.520;11.284;2023-04-26T00:32:04;97437.22;;;9.70;68.14
15932;BME280;8065;49.520;11.284;2023-04-26T00:34:31;97437.84;;;9.67;68.53
15932;BME280;8065;49.520;11.284;2023-04-26T00:36:58;97436.75;;;9.68;67.82
15932;BME280;8065;49.520;11.284;2023-04-26T00:39:25;97433.16;;;9.64;66.87
15932;BME280;8065;49.520;11.284;2023-04-26T00:41:52;97435.81;;;9.56;67.42
15932;BME280;8065;49.520;11.284;2023-04-26T00:44:19;97437.56;;;9.51;68.02
15932;BME280;8065;49.520;11.284;2023-04-26T00:46:46;97439.25;;;9.39;69.47
15932;BME280;8065;49.520;11.284;2023-04-26T00:49:15;97441.56;;;9.23;70.09
15932;BME280;8065;49.520;11.284;2023-04-26T00:51:42;97437.97;;;9.19;69.21
15932;BME280;8065;49.520;11.284;2023-04-26T00:54:09;97443.44;;;9.23;69.40
15932;BME280;8065;49.520;11.284;2023-04-26T00:56:36;97439.78;;;8.93;71.56
15932;BME280;8065;49.520;11.284;2023-04-26T00:59:05;97433.81;;;8.78;72.26
15932;BME280;8065;49.520;11.284;2023-04-26T01:01:31;97445.84;;;8.84;72.61
15932;BME280;8065;49.520;11.284;2023-04-26T01:03:59;97442.72;;;8.82;72.00
15932;BME280;8065;49.520;11.284;2023-04-26T01:06:28;97444.38;;;8.61;72.99
15932;BME280;8065;49.520;11.284;2023-04-26T01:08:59;97444.63;;;8.51;73.75
15932;BME280;8065;49.520;11.284;2023-04-26T01:11:27;97442.47;;;8.53;72.99
15932;BME280;8065;49.520;11.284;2023-04-26T01:13:55;97451.75;;;8.42;72.48
15932;BME280;8065;49.520;11.284;2023-04-26T01:16:24;97450.06;;;8.46;71.01
15932;BME280;8065;49.520;11.284;2023-04-26T01:18:51;97451.16;;;8.45;71.09
15932;BME280;8065;49.520;11.284;2023-04-26T01:21:19;97458.53;;;8.57;70.19
15932;BME280;8065;49.520;11.284;2023-04-26T01:23:47;97449.06;;;8.64;68.83
15932;BME280;8065;49.520;11.284;2023-04-26T01:26:14;97455.75;;;8.62;68.67
15932;BME280;8065;49.520;11.284;2023-04-26T01:28:40;97454.34;;;8.64;69.20
15932;BME280;8065;49.520;11.284;2023-04-26T01:31:07;97462.31;;;8.64;68.95
15932;BME280;8065;49.520;11.284;2023-04-26T01:33:34;97457.63;;;8.61;69.57
15932;BME280;8065;49.520;11.284;2023-04-26T01:36:00;97460.53;;;8.51;68.48
15932;BME280;8065;49.520;11.284;2023-04-26T01:38:26;97453.50;;;8.46;69.21
15932;BME280;8065;49.520;11.284;2023-04-26T01:40:54;97458.75;;;8.38;68.95
15932;BME280;8065;49.520;11.284;2023-04-26T01:43:21;97455.72;;;8.31;68.93
15932;BME280;8065;49.520;11.284;2023-04-26T01:45:47;97458.19;;;8.27;69.63
15932;BME280;8065;49.520;11.284;2023-04-26T01:48:14;97458.47;;;8.26;68.88
15932;BME280;8065;49.520;11.284;2023-04-26T01:50:41;97459.75;;;8.28;69.38
15932;BME280;8065;49.520;11.284;2023-04-26T01:53:07;97461.22;;;8.34;69.23
15932;BME280;8065;49.520;11.284;2023-04-26T01:55:33;97461.38;;;8.38;68.83
15932;BME280;8065;49.520;11.284;2023-04-26T01:58:01;97457.03;;;8.42;69.07
15932;BME280;8065;49.520;11.284;2023-04-26T02:00:28;97453.38;;;8.29;68.90
15932;BME280;8065;49.520;11.284;2023-04-26T02:02:55;97459.81;;;8.14;69.40
15932;BME280;8065;49.520;11.284;2023-04-26T02:05:23;97468.72;;;7.96;70.72
15932;BME280;8065;49.520;11.284;2023-04-26T02:07:49;97467.78;;;7.56;73.49
15932;BME280;8065;49.520;11.284;2023-04-26T02:10:16;97462.91;;;7.49;74.22
15932;BME280;8065;49.520;11.284;2023-04-26T02:12:43;97471.59;;;7.14;76.49
15932;BME280;8065;49.520;11.284;2023-04-26T02:15:11;97473.94;;;7.02;77.79
15932;BME280;8065;49.520;11.284;2023-04-26T02:17:37;97473.44;;;7.27;75.85
15932;BME280;8065;49.520;11.284;2023-04-26T02:20:04;97470.97;;;7.31;76.31
15932;BME280;8065;49.520;11.284;2023-04-26T02:22:34;97472.13;;;7.38;76.13
15932;BME280;8065;49.520;11.284;2023-04-26T02:25:00;97466.19;;;7.33;76.09
15932;BME280;8065;49.520;11.284;2023-04-26T02:27:27;97468.75;;;7.10;77.39
15932;BME280;8065;49.520;11.284;2023-04-26T02:29:54;97470.00;;;7.13;76.50
15932;BME280;8065;49.520;11.284;2023-04-26T02:32:21;97472.47;;;6.96;77.33
15932;BME280;8065;49.520;11.284;2023-04-26T02:34:48;97467.59;;;6.75;78.66
15932;BME280;8065;49.520;11.284;2023-04-26T02:37:14;97468.75;;;6.97;77.02
15932;BME280;8065;49.520;11.284;2023-04-26T02:39:41;97470.44;;;6.93;78.16
15932;BME280;8065;49.520;11.284;2023-04-26T02:42:08;97468.69;;;6.88;77.89
15932;BME280;8065;49.520;11.284;2023-04-26T02:44:34;97470.44;;;6.93;77.69
15932;BME280;8065;49.520;11.284;2023-04-26T02:47:01;97470.31;;;6.98;77.94
15932;BME280;8065;49.520;11.284;2023-04-26T02:49:29;97478.25;;;6.98;77.13
15932;BME280;8065;49.520;11.284;2023-04-26T02:51:56;97479.22;;;7.02;77.37
15932;BME280;8065;49.520;11.284;2023-04-26T02:54:22;97480.59;;;6.99;77.84
15932;BME280;8065;49.520;11.284;2023-04-26T02:56:49;97477.19;;;6.71;77.95
15932;BME280;8065;49.520;11.284;2023-04-26T02:59:15;97477.00;;;6.81;77.72
15932;BME280;8065;49.520;11.284;2023-04-26T03:01:42;97480.81;;;6.75;77.43
15932;BME280;8065;49.520;11.284;2023-04-26T03:04:08;97471.38;;;6.42;78.77
15932;BME280;8065;49.520;11.284;2023-04-26T03:06:36;97469.72;;;6.46;78.59
15932;BME280;8065;49.520;11.284;2023-04-26T03:09:03;97472.69;;;6.25;79.08
15932;BME280;8065;49.520;11.284;2023-04-26T03:11:30;97476.19;;;6.21;78.88
15932;BME280;8065;49.520;11.284;2023-04-26T03:13:56;97491.25;;;6.20;79.43
15932;BME280;8065;49.520;11.284;2023-04-26T03:16:23;97487.19;;;6.42;78.20
15932;BME280;8065;49.520;11.284;2023-04-26T03:18:49;97485.44;;;6.37;79.08
15932;BME280;8065;49.520;11.284;2023-04-26T03:21:15;97494.03;;;6.43;78.14
15932;BME280;8065;49.520;11.284;2023-04-26T03:23:43;97488.59;;;6.53;77.76
15932;BME280;8065;49.520;11.284;2023-04-26T03:26:10;97494.53;;;6.45;77.55
15932;BME280;8065;49.520;11.284;2023-04-26T03:28:36;97492.97;;;6.44;77.87
15932;BME280;8065;49.520;11.284;2023-04-26T03:31:03;97492.41;;;6.14;78.70
15932;BME280;8065;49.520;11.284;2023-04-26T03:33:29;97498.31;;;5.93;79.26
15932;BME280;8065;49.520;11.284;2023-04-26T03:35:56;97490.69;;;5.91;78.89
15932;BME280;8065;49.520;11.284;2023-04-26T03:38:22;97490.09;;;5.94;79.00
15932;BME280;8065;49.520;11.284;2023-04-26T03:40:50;97492.06;;;5.83;79.11
15932;BME280;8065;49.520;11.284;2023-04-26T03:43:17;97495.31;;;5.99;78.21
15932;BME280;8065;49.520;11.284;2023-04-26T03:45:45;97494.38;;;5.90;78.53
15932;BME280;8065;49.520;11.284;2023-04-26T03:48:12;97491.50;;;5.86;78.87
15932;BME280;8065;49.520;11.284;2023-04-26T03:50:39;97506.00;;;5.89;78.79
15932;BME280;8065;49.520;11.284;2023-04-26T03:53:05;97494.88;;;5.92;78.18
15932;BME280;8065;49.520;11.284;2023-04-26T03:55:32;97503.28;;;5.94;78.22
15932;BME280;8065;49.520;11.284;2023-04-26T03:58:00;97502.78;;;5.92;78.44
15932;BME280;8065;49.520;11.284;2023-04-26T04:00:27;97508.06;;;5.92;78.62
15932;BME280;8065;49.520;11.284;2023-04-26T04:02:53;97517.44;;;5.79;79.25
15932;BME280;8065;49.520;11.284;2023-04-26T04:05:20;97515.00;;;5.64;79.59
15932;BME280;8065;49.520;11.284;2023-04-26T04:07:46;97518.50;;;5.59;79.85
15932;BME280;8065;49.520;11.284;2023-04-26T04:10:13;97516.09;;;5.82;78.80
15932;BME280;8065;49.520;11.284;2023-04-26T04:12:40;97521.84;;;5.84;78.77
15932;BME280;8065;49.520;11.284;2023-04-26T04:15:09;97514.94;;;5.88;78.09
15932;BME280;8065;49.520;11.284;2023-04-26T04:17:35;97514.41;;;5.91;78.45
15932;BME280;8065;49.520;11.284;2023-04-26T04:20:02;97522.22;;;5.58;78.80
15932;BME280;8065;49.520;11.284;2023-04-26T04:22:31;97523.22;;;5.63;79.03
15932;BME280;8065;49.520;11.284;2023-04-26T04:24:58;97519.19;;;5.46;79.95
15932;BME280;8065;49.520;11.284;2023-04-26T04:27:24;97521.41;;;5.39;80.10
15932;BME280;8065;49.520;11.284;2023-04-26T04:29:51;97524.09;;;5.34;80.34
15932;BME280;8065;49.520;11.284;2023-04-26T04:32:20;97521.34;;;5.20;81.47
15932;BME280;8065;49.520;11.284;2023-04-26T04:34:47;97534.19;;;5.27;80.73
15932;BME280;8065;49.520;11.284;2023-04-26T04:37:15;97528.97;;;5.22;80.82
15932;BME280;8065;49.520;11.284;2023-04-26T04:39:42;97538.94;;;5.25;80.02
15932;BME280;8065;49.520;11.284;2023-04-26T04:42:09;97536.97;;;5.17;81.11
15932;BME280;8065;49.520;11.284;2023-04-26T04:44:36;97544.13;;;5.11;80.57
15932;BME280;8065;49.520;11.284;2023-04-26T04:47:02;97543.31;;;5.16;80.66
15932;BME280;8065;49.520;11.284;2023-04-26T04:49:30;97548.06;;;5.14;81.28
15932;BME280;8065;49.520;11.284;2023-04-26T04:51:57;97556.88;;;5.23;80.87
15932;BME280;8065;49.520;11.284;2023-04-26T04:54:23;97555.13;;;5.18;80.71
15932;BME280;8065;49.520;11.284;2023-04-26T04:56:50;97553.94;;;5.06;81.87
15932;BME280;8065;49.520;11.284;2023-04-26T04:59:16;97555.91;;;5.19;82.22
15932;BME280;8065;49.520;11.284;2023-04-26T05:01:43;97547.81;;;5.34;81.17
15932;BME280;8065;49.520;11.284;2023-04-26T05:04:09;97562.50;;;5.40;80.73
15932;BME280;8065;49.520;11.284;2023-04-26T05:06:37;97550.06;;;5.65;79.88
15932;BME280;8065;49.520;11.284;2023-04-26T05:09:04;97558.25;;;5.63;80.18
15932;BME280;8065;49.520;11.284;2023-04-26T05:11:31;97553.91;;;5.72;79.78
15932;BME280;8065;49.520;11.284;2023-04-26T05:13:58;97556.13;;;5.84;79.93
15932;BME280;8065;49.520;11.284;2023-04-26T05:16:24;97552.31;;;5.95;79.73
15932;BME280;8065;49.520;11.284;2023-04-26T05:18:51;97551.53;;;5.95;80.11
15932;BME280;8065;49.520;11.284;2023-04-26T05:21:17;97557.72;;;5.85;80.70
15932;BME280;8065;49.520;11.284;2023-04-26T05:23:45;97551.44;;;5.81;81.11
15932;BME280;8065;49.520;11.284;2023-04-26T05:26:13;97560.66;;;6.02;80.52
15932;BME280;8065;49.520;11.284;2023-04-26T05:28:40;97560.47;;;6.12;80.62
15932;BME280;8065;49.520;11.284;2023-04-26T05:31:07;97564.53;;;6.23;79.91
15932;BME280;8065;49.520;11.284;2023-04-26T05:33:33;97566.94;;;6.39;79.29
15932;BME280;8065;49.520;11.284;2023-04-26T05:36:00;97575.38;;;6.41;79.22
15932;BME280;8065;49.520;11.284;2023-04-26T05:38:26;97572.47;;;6.56;79.13
15932;BME280;8065;49.520;11.284;2023-04-26T05:40:55;97576.03;;;6.65;78.18
15932;BME280;8065;49.520;11.284;2023-04-26T05:43:22;97575.28;;;6.78;78.51
15932;BME280;8065;49.520;11.284;2023-04-26T05:45:51;97578.25;;;6.90;77.92
15932;BME280;8065;49.520;11.284;2023-04-26T05:48:19;97579.41;;;6.98;77.82
15932;BME280;8065;49.520;11.284;2023-04-26T05:50:45;97581.16;;;7.03;76.84
15932;BME280;8065;49.520;11.284;2023-04-26T05:53:12;97579.41;;;7.12;76.58
15932;BME280;8065;49.520;11.284;2023-04-26T05:55:39;97588.44;;;7.24;76.55
15932;BME280;8065;49.520;11.284;2023-04-26T05:58:07;97586.47;;;7.30;76.28
15932;BME280;8065;49.520;11.284;2023-04-26T06:00:34;97595.47;;;7.29;75.83
15932;BME280;8065;49.520;11.284;2023-04-26T06:03:00;97593.03;;;7.19;76.60
15932;BME280;8065;49.520;11.284;2023-04-26T06:05:27;97592.16;;;7.37;75.82
15932;BME280;8065;49.520;11.284;2023-04-26T06:07:53;97588.44;;;7.52;76.32
15932;BME280;8065;49.520;11.284;2023-04-26T06:10:20;97584.72;;;7.67;75.21
15932;BME280;8065;49.520;11.284;2023-04-26T06:12:46;97585.09;;;7.74;74.68
15932;BME280;8065;49.520;11.284;2023-04-26T06:15:14;97585.03;;;7.87;75.19
15932;BME280;8065;49.520;11.284;2023-04-26T06:17:41;97586.09;;;8.00;74.67
15932;BME280;8065;49.520;11.284;2023-04-26T06:20:08;97589.97;;;8.16;73.92
15932;BME280;8065;49.520;11.284;2023-04-26T06:22:35;97598.66;;;8.31;74.07
15932;BME280;8065;49.520;11.284;2023-04-26T06:25:03;97590.81;;;8.39;72.60
15932;BME280;8065;49.520;11.284;2023-04-26T06:27:29;97595.69;;;8.46;71.54
15932;BME280;8065;49.520;11.284;2023-04-26T06:29:56;97586.19;;;8.45;72.19
15932;BME280;8065;49.520;11.284;2023-04-26T06:32:24;97601.34;;;8.53;72.39
15932;BME280;8065;49.520;11.284;2023-04-26T06:34:50;97597.69;;;8.63;71.98
15932;BME280;8065;49.520;11.284;2023-04-26T06:37:17;97597.88;;;8.66;70.91
15932;BME280;8065;49.520;11.284;2023-04-26T06:39:43;97598.19;;;8.73;70.90
15932;BME280;8065;49.520;11.284;2023-04-26T06:42:09;97590.47;;;8.85;70.54
15932;BME280;8065;49.520;11.284;2023-04-26T06:44:36;97594.91;;;8.99;70.89
15932;BME280;8065;49.520;11.284;2023-04-26T06:47:02;97599.81;;;9.14;70.34
15932;BME280;8065;49.520;11.284;2023-04-26T06:49:32;97598.59;;;9.20;69.84
15932;BME280;8065;49.520;11.284;2023-04-26T06:51:58;97596.16;;;9.32;69.93
15932;BME280;8065;49.520;11.284;2023-04-26T06:54:27;97588.25;;;9.41;68.86
15932;BME280;8065;49.520;11.284;2023-04-26T06:56:54;97593.09;;;9.47;69.49
15932;BME280;8065;49.520;11.284;2023-04-26T06:59:20;97589.66;;;9.56;68.06
15932;BME280;8065;49.520;11.284;2023-04-26T07:01:47;97591.41;;;9.60;66.84
15932;BME280;8065;49.520;11.284;2023-04-26T07:04:13;97594.06;;;9.69;66.89
15932;BME280;8065;49.520;11.284;2023-04-26T07:06:44;97593.16;;;9.82;66.48
15932;BME280;8065;49.520;11.284;2023-04-26T07:09:11;97594.91;;;9.95;66.34
15932;BME280;8065;49.520;11.284;2023-04-26T07:11:37;97608.19;;;9.95;64.61
15932;BME280;8065;49.520;11.284;2023-04-26T07:14:04;97595.56;;;10.09;64.91
15932;BME280;8065;49.520;11.284;2023-04-26T07:16:30;97594.19;;;10.21;65.73
15932;BME280;8065;49.520;11.284;2023-04-26T07:18:57;97597.63;;;10.21;64.46
15932;BME280;8065;49.520;11.284;2023-04-26T07:21:23;97595.44;;;10.32;64.23
15932;BME280;8065;49.520;11.284;2023-04-26T07:23:53;97596.03;;;10.46;65.52
15932;BME280;8065;49.520;11.284;2023-04-26T07:26:20;97596.19;;;10.58;65.47
15932;BME280;8065;49.520;11.284;2023-04-26T07:28:47;97604.28;;;10.79;65.42
15932;BME280;8065;49.520;11.284;2023-04-26T07:31:13;97598.19;;;10.87;64.40
15932;BME280;8065;49.520;11.284;2023-04-26T07:33:40;97595.66;;;10.99;64.01
15932;BME280;8065;49.520;11.284;2023-04-26T07:36:07;97595.63;;;11.08;60.92
15932;BME280;8065;49.520;11.284;2023-04-26T07:38:34;97594.69;;;11.04;59.51
15932;BME280;8065;49.520;11.284;2023-04-26T07:41:01;97592.50;;;11.06;56.91
15932;BME280;8065;49.520;11.284;2023-04-26T07:43:29;97599.22;;;11.12;56.83
15932;BME280;8065;49.520;11.284;2023-04-26T07:45:58;97595.09;;;11.23;56.36
15932;BME280;8065;49.520;11.284;2023-04-26T07:48:25;97590.69;;;11.27;56.37
15932;BME280;8065;49.520;11.284;2023-04-26T07:50:51;97597.66;;;11.40;55.96
15932;BME280;8065;49.520;11.284;2023-04-26T07:53:18;97605.47;;;11.45;54.38
15932;BME280;8065;49.520;11.284;2023-04-26T07:55:44;97594.19;;;11.48;55.45
15932;BME280;8065;49.520;11.284;2023-04-26T07:58:12;97594.75;;;11.63;54.94
15932;BME280;8065;49.520;11.284;2023-04-26T08:00:39;97596.59;;;11.71;54.51
15932;BME280;8065;49.520;11.284;2023-04-26T08:03:05;97598.88;;;11.90;54.08
15932;BME280;8065;49.520;11.284;2023-04-26T08:05:32;97600.56;;;11.94;53.51
15932;BME280;8065;49.520;11.284;2023-04-26T08:07:58;97593.28;;;12.03;52.16
15932;BME280;8065;49.520;11.284;2023-04-26T08:10:25;97601.09;;;12.08;52.64
15932;BME280;8065;49.520;11.284;2023-04-26T08:12:53;97593.47;;;12.19;53.16
15932;BME280;8065;49.520;11.284;2023-04-26T08:15:23;97594.81;;;12.46;53.85
15932;BME280;8065;49.520;11.284;2023-04-26T08:17:49;97588.97;;;12.53;53.18
15932;BME280;8065;49.520;11.284;2023-04-26T08:20:17;97591.75;;;12.56;52.23
15932;BME280;8065;49.520;11.284;2023-04-26T08:22:44;97595.13;;;12.65;53.03
15932;BME280;8065;49.520;11.284;2023-04-26T08:25:10;97593.84;;;12.84;52.62
15932;BME280;8065;49.520;11.284;2023-04-26T08:27:37;97603.38;;;12.72;51.95
15932;BME280;8065;49.520;11.284;2023-04-26T08:30:05;97600.69;;;12.39;53.36
15932;BME280;8065;49.520;11.284;2023-04-26T08:32:33;97597.31;;;12.30;51.35
15932;BME280;8065;49.520;11.284;2023-04-26T08:35:00;97600.28;;;12.29;49.75
15932;BME280;8065;49.520;11.284;2023-04-26T08:37:27;97594.75;;;12.55;50.07
15932;BME280;8065;49.520;11.284;2023-04-26T08:39:53;97599.97;;;12.84;49.83
15932;BME280;8065;49.520;11.284;2023-04-26T08:42:25;97599.34;;;13.11;50.72
15932;BME280;8065;49.520;11.284;2023-04-26T08:44:52;97598.28;;;13.25;48.85
15932;BME280;8065;49.520;11.284;2023-04-26T08:47:24;97601.13;;;12.95;48.89
15932;BME280;8065;49.520;11.284;2023-04-26T08:49:55;97590.16;;;13.21;48.69
15932;BME280;8065;49.520;11.284;2023-04-26T08:52:26;97592.63;;;13.38;48.10
15932;BME280;8065;49.520;11.284;2023-04-26T08:54:53;97600.53;;;13.35;47.65
15932;BME280;8065;49.520;11.284;2023-04-26T08:57:23;97605.97;;;13.38;47.90
15932;BME280;8065;49.520;11.284;2023-04-26T08:59:49;97600.44;;;13.43;47.44
15932;BME280;8065;49.520;11.284;2023-04-26T09:02:18;97603.06;;;13.19;48.35
15932;BME280;8065;49.520;11.284;2023-04-26T09:04:46;97605.97;;;13.26;49.08
15932;BME280;8065;49.520;11.284;2023-04-26T09:07:18;97608.63;;;13.26;50.13
15932;BME280;8065;49.520;11.284;2023-04-26T09:09:47;97601.09;;;13.40;48.34
15932;BME280;8065;49.520;11.284;2023-04-26T09:12:16;97598.91;;;12.97;48.50
15932;BME280;8065;49.520;11.284;2023-04-26T09:14:43;97598.19;;;13.21;48.37
15932;BME280;8065;49.520;11.284;2023-04-26T09:17:24;97602.97;;;13.28;47.57
15932;BME280;8065;49.520;11.284;2023-04-26T09:19:50;97598.41;;;13.40;47.42
15932;BME280;8065;49.520;11.284;2023-04-26T09:22:30;97596.66;;;13.57;46.86
15932;BME280;8065;49.520;11.284;2023-04-26T09:24:57;97603.00;;;13.52;47.30
15932;BME280;8065;49.520;11.284;2023-04-26T09:27:31;97606.88;;;13.30;47.13
15932;BME280;8065;49.520;11.284;2023-04-26T09:30:02;97590.63;;;13.48;46.88
15932;BME280;8065;49.520;11.284;2023-04-26T09:32:43;97589.13;;;13.99;47.80
15932;BME280;8065;49.520;11.284;2023-04-26T09:35:20;97581.66;;;14.17;45.91
15932;BME280;8065;49.520;11.284;2023-04-26T09:37:52;97583.19;;;14.18;43.77
15932;BME280;8065;49.520;11.284;2023-04-26T09:40:19;97577.28;;;14.64;45.18
15932;BME280;8065;49.520;11.284;2023-04-26T09:42:46;97578.59;;;14.86;44.32
15932;BME280;8065;49.520;11.284;2023-04-26T09:45:12;97575.28;;;14.61;45.65
15932;BME280;8065;49.520;11.284;2023-04-26T09:47:41;97570.13;;;14.68;44.28
15932;BME280;8065;49.520;11.284;2023-04-26T09:50:08;97568.81;;;14.62;43.89
15932;BME280;8065;49.520;11.284;2023-04-26T09:52:41;97578.00;;;14.49;44.22
15932;BME280;8065;49.520;11.284;2023-04-26T09:55:09;97579.13;;;14.48;45.13
15932;BME280;8065;49.520;11.284;2023-04-26T09:57:41;97581.56;;;14.53;45.03
15932;BME280;8065;49.520;11.284;2023-04-26T10:00:09;97573.00;;;14.48;44.06
15932;BME280;8065;49.520;11.284;2023-04-26T10:02:36;97578.59;;;14.42;45.25
15932;BME280;8065;49.520;11.284;2023-04-26T10:05:05;97577.97;;;14.09;44.07
15932;BME280;8065;49.520;11.284;2023-04-26T10:07:32;97584.09;;;14.09;44.15
15932;BME280;8065;49.520;11.284;2023-04-26T10:09:59;97574.34;;;13.89;46.30
15932;BME280;8065;49.520;11.284;2023-04-26T10:12:29;97575.94;;;13.78;47.12
15932;BME280;8065;49.520;11.284;2023-04-26T10:14:56;97572.22;;;13.95;46.24
15932;BME280;8065;49.520;11.284;2023-04-26T10:17:23;97568.06;;;14.09;45.59
15932;BME280;8065;49.520;11.284;2023-04-26T10:19:56;97570.69;;;14.34;45.24
15932;BME280;8065;49.520;11.284;2023-04-26T10:22:26;97567.84;;;14.55;43.91
15932;BME280;8065;49.520;11.284;2023-04-26T10:24:54;97575.13;;;14.42;43.54
15932;BME280;8065;49.520;11.284;2023-04-26T10:27:52;97572.78;;;14.40;43.92
15932;BME280;8065;49.520;11.284;2023-04-26T10:30:19;97561.09;;;14.33;44.29
15932;BME280;8065;49.520;11.284;2023-04-26T10:33:20;97563.88;;;14.49;44.06
15932;BME280;8065;49.520;11.284;2023-04-26T10:36:08;97563.28;;;14.55;42.02
15932;BME280;8065;49.520;11.284;2023-04-26T10:38:36;97562.19;;;14.72;43.06
15932;BME280;8065;49.520;11.284;2023-04-26T10:41:35;97562.44;;;14.83;43.38
15932;BME280;8065;49.520;11.284;2023-04-26T10:44:37;97563.75;;;14.73;43.92
15932;BME280;8065;49.520;11.284;2023-04-26T10:47:04;97557.44;;;14.81;43.89
15932;BME280;8065;49.520;11.284;2023-04-26T10:49:43;97555.97;;;14.84;43.02
15932;BME280;8065;49.520;11.284;2023-04-26T10:52:12;97554.25;;;14.91;42.52
15932;BME280;8065;49.520;11.284;2023-04-26T10:54:52;97545.53;;;14.79;43.15
15932;BME280;8065;49.520;11.284;2023-04-26T10:57:19;97555.09;;;14.64;43.40
15932;BME280;8065;49.520;11.284;2023-04-26T11:00:19;97551.41;;;14.68;42.34
15932;BME280;8065;49.520;11.284;2023-04-26T11:02:52;97553.66;;;14.66;42.55
15932;BME280;8065;49.520;11.284;2023-04-26T11:08:19;97552.47;;;14.52;44.57
15932;BME280;8065;49.520;11.284;2023-04-26T11:10:51;97556.81;;;14.16;43.84
15932;BME280;8065;49.520;11.284;2023-04-26T11:13:18;97548.16;;;14.47;44.10
15932;BME280;8065;49.520;11.284;2023-04-26T11:15:46;97548.78;;;14.56;43.45
15932;BME280;8065;49.520;11.284;2023-04-26T11:18:18;97539.22;;;14.55;44.45
15932;BME280;8065;49.520;11.284;2023-04-26T11:20:45;97545.00;;;14.57;44.68
15932;BME280;8065;49.520;11.284;2023-04-26T11:23:12;97544.59;;;14.43;45.46
15932;BME280;8065;49.520;11.284;2023-04-26T11:25:38;97531.44;;;14.50;43.45
15932;BME280;8065;49.520;11.284;2023-04-26T11:28:05;97536.22;;;14.72;44.01
15932;BME280;8065;49.520;11.284;2023-04-26T11:30:32;97539.25;;;15.02;44.37
15932;BME280;8065;49.520;11.284;2023-04-26T11:33:01;97530.63;;;15.40;44.62
15932;BME280;8065;49.520;11.284;2023-04-26T11:35:28;97531.28;;;15.53;43.80
15932;BME280;8065;49.520;11.284;2023-04-26T11:37:57;97526.50;;;15.62;43.48
15932;BME280;8065;49.520;11.284;2023-04-26T11:40:27;97526.88;;;15.61;43.01
15932;BME280;8065;49.520;11.284;2023-04-26T11:42:53;97517.16;;;15.72;42.39
15932;BME280;8065;49.520;11.284;2023-04-26T11:45:20;97523.22;;;15.69;41.19
15932;BME280;8065;49.520;11.284;2023-04-26T11:47:46;97526.53;;;15.47;41.94
15932;BME280;8065;49.520;11.284;2023-04-26T11:50:15;97522.22;;;15.58;41.49
15932;BME280;8065;49.520;11.284;2023-04-26T11:52:41;97523.59;;;15.52;42.07
15932;BME280;8065;49.520;11.284;2023-04-26T11:55:08;97524.63;;;15.63;43.39
15932;BME280;8065;49.520;11.284;2023-04-26T11:57:35;97530.25;;;15.42;42.19
15932;BME280;8065;49.520;11.284;2023-04-26T12:00:12;97530.03;;;15.16;41.79
15932;BME280;8065;49.520;11.284;2023-04-26T12:02:43;97525.34;;;15.28;41.67
15932;BME280;8065;49.520;11.284;2023-04-26T12:05:10;97530.00;;;15.31;41.79
15932;BME280;8065;49.520;11.284;2023-04-26T12:07:38;97530.09;;;15.35;42.38
15932;BME280;8065;49.520;11.284;2023-04-26T12:10:15;97523.44;;;15.45;42.29
15932;BME280;8065;49.520;11.284;2023-04-26T12:12:48;97524.91;;;15.58;41.88
15932;BME280;8065;49.520;11.284;2023-04-26T12:15:15;97518.25;;;15.52;41.58
15932;BME280;8065;49.520;11.284;2023-04-26T12:17:55;97512.03;;;15.48;42.42
15932;BME280;8065;49.520;11.284;2023-04-26T12:20:29;97510.03;;;15.60;41.59
15932;BME280;8065;49.520;11.284;2023-04-26T12:23:02;97503.06;;;15.75;41.75
15932;BME280;8065;49.520;11.284;2023-04-26T12:25:29;97511.66;;;15.65;42.16
15932;BME280;8065;49.520;11.284;2023-04-26T12:27:56;97507.22;;;15.37;40.27
15932;BME280;8065;49.520;11.284;2023-04-26T12:30:24;97503.56;;;15.46;41.56
15932;BME280;8065;49.520;11.284;2023-04-26T12:32:51;97500.75;;;15.73;41.75
15932;BME280;8065;49.520;11.284;2023-04-26T12:35:17;97497.22;;;15.89;41.21
15932;BME280;8065;49.520;11.284;2023-04-26T12:37:44;97495.31;;;15.89;41.25
15932;BME280;8065;49.520;11.284;2023-04-26T12:40:13;97498.22;;;15.81;41.15
15932;BME280;8065;49.520;11.284;2023-04-26T12:42:40;97501.66;;;15.81;40.46
15932;BME280;8065;49.520;11.284;2023-04-26T12:45:07;97497.75;;;16.14;39.80
15932;BME280;8065;49.520;11.284;2023-04-26T12:47:34;97499.72;;;16.17;40.33
15932;BME280;8065;49.520;11.284;2023-04-26T12:50:00;97496.25;;;16.16;40.51
15932;BME280;8065;49.520;11.284;2023-04-26T12:52:27;97499.56;;;16.29;40.60
15932;BME280;8065;49.520;11.284;2023-04-26T12:54:53;97493.16;;;15.95;42.29
15932;BME280;8065;49.520;11.284;2023-04-26T12:57:21;97484.34;;;16.14;42.07
15932;BME280;8065;49.520;11.284;2023-04-26T12:59:50;97488.34;;;15.85;41.85
15932;BME280;8065;49.520;11.284;2023-04-26T13:02:16;97488.50;;;15.92;41.70
15932;BME280;8065;49.520;11.284;2023-04-26T13:04:43;97486.16;;;15.90;40.98
15932;BME280;8065;49.520;11.284;2023-04-26T13:07:09;97483.06;;;15.88;40.57
15932;BME280;8065;49.520;11.284;2023-04-26T13:09:35;97484.06;;;15.99;40.40
15932;BME280;8065;49.520;11.284;2023-04-26T13:12:02;97482.78;;;16.13;39.46